• Join FlightAware (Why Join?)
  • Login
  • US Flag 
09:55PM EDT


 

Airport Tracker/Info


-or-


 

Live Flight TrackerFlight Track Log ✈ UAL335 ✈ 29-Apr-2013 ✈ KSMF - KDEN

Flight Track Log - Related Links

Times and Time Zones

All times are in EDT time to prevent confusion due to time zone crossing. See the UAL335 flight status page for this flight to view local times or setup timezone preferences in your user account.

Time Position Orientation Groundspeed Altitude Reporting Facility
EDT Latitude Longitude Course Direction KTS MPH feet Rate Location/Type
08:41AM 38.7333 -121.5833 78° East 152 175 1,500  Level Northern Cal TRACON
08:42AM 38.7500 -121.5333 67° East 218 251 3,200 2,400 Climbing Northern Cal TRACON
08:43AM 38.4915 -121.2932 80° East  Level FlightAware Approximate
08:44AM 38.5236 -121.1488 76° East  Level FlightAware Approximate
08:44AM 38.7436 -121.3600 93° East 289 333 8,500  Level Oakland Center
08:45AM 38.5524 -121.0025 78° East  Level FlightAware Approximate
08:45AM 38.7408 -121.2478 92° East 314 361 10,800  Level Oakland Center
08:46AM 38.5771 -120.8549 78° East  Level FlightAware Approximate
08:46AM 38.7350 -121.1186 93° East 354 407 13,400  Level Oakland Center
08:47AM 38.7303 -120.9847 93° East 369 425 15,900 2,520 Climbing Oakland Center
08:48AM 38.7228 -120.8464 94° East 385 443 18,500 2,400 Climbing Oakland Center
08:49AM 38.7161 -120.7033 93° East 399 459 20,700 2,100 Climbing Oakland Center
08:50AM 38.7086 -120.5569 94° East 412 474 22,700 1,860 Climbing Oakland Center
08:51AM 38.7017 -120.4078 93° East 418 481 24,500 1,680 Climbing Oakland Center
08:52AM 38.6936 -120.2536 94° East 434 499 26,100 1,500 Climbing Oakland Center
08:53AM 38.6883 -120.0978 92° East 438 504 27,600 1,500 Climbing Oakland Center
08:54AM 38.6800 -119.9386 94° East 445 512 29,200 1,380 Climbing Oakland Center
08:55AM 38.6719 -119.7747 94° East 456 525 30,400 1,200 Climbing Oakland Center
08:56AM 38.6617 -119.6089 94° East 466 536 31,700 1,320 Climbing Oakland Center
08:57AM 38.6525 -119.4433 94° East 468 539 33,100 1,320 Climbing Oakland Center
08:58AM 38.6439 -119.2797 94° East 466 536 34,400 1,200 Climbing Oakland Center
08:59AM 38.6344 -119.1172 94° East 462 532 35,600 1,140 Climbing Oakland Center
09:00AM 38.6239 -118.9536 95° East 464 534 36,700 660 Climbing Oakland Center
09:01AM 38.6153 -118.7928 94° East 459 528 37,000 120 Climbing Oakland Center
09:02AM 38.6044 -118.6319 95° East 456 525 37,000  Level Oakland Center
09:03AM 38.5953 -118.4722 94° East 454 522 37,000  Level Oakland Center
09:04AM 38.5839 -118.3106 95° East 457 526 37,000  Level Oakland Center
09:05AM 38.5739 -118.1489 94° East 459 528 37,000  Level Oakland Center
09:06AM 38.5764 -117.9742 89° East 455 524 37,000  Level Oakland Center
09:07AM 38.6006 -117.8175 79° East 450 518 37,000  Level Oakland Center
09:08AM 38.6239 -117.6603 79° East 449 517 37,000  Level Oakland Center
09:09AM 38.6481 -117.5014 79° East 451 519 37,000  Level Oakland Center
09:10AM 38.6728 -117.3428 79° East 451 519 37,000  Level Oakland Center
09:10AM 38.6764 -117.3103 82° East 452 520 37,000  Level Salt Lake Center
09:11AM 38.7006 -117.1503 79° East 454 522 37,000  Level Salt Lake Center
09:12AM 38.7211 -117.0242 78° East 453 521 37,000  Level Oakland Center
09:13AM 38.7442 -116.8650 79° East 453 521 37,000  Level Oakland Center
09:13AM 38.7478 -116.8325 82° East 452 520 37,000  Level Salt Lake Center
09:14AM 38.7711 -116.6731 79° East 453 521 37,000  Level Salt Lake Center
09:15AM 38.7908 -116.5456 79° East 455 524 37,000  Level Oakland Center
09:16AM 38.8128 -116.3872 80° East 451 519 37,000  Level Oakland Center
09:16AM 38.8172 -116.3547 80° East 452 520 37,000  Level Salt Lake Center
09:17AM 38.8406 -116.1947 79° East 456 525 37,000  Level Salt Lake Center
09:18AM 38.8669 -116.0025 80° East 454 522 37,000  Level Salt Lake Center
09:19AM 38.8892 -115.8417 80° East 457 526 37,000  Level Salt Lake Center
09:20AM 38.9117 -115.6811 80° East 457 526 37,000  Level Salt Lake Center
09:21AM 38.9342 -115.5203 80° East 458 527 37,000  Level Salt Lake Center
09:22AM 38.9556 -115.3592 80° East 457 526 37,000  Level Salt Lake Center
09:23AM 38.9783 -115.1967 80° East 462 532 37,000  Level Salt Lake Center
09:24AM 38.9992 -115.0358 80° East 458 527 37,000  Level Salt Lake Center
09:25AM 39.0203 -114.8744 80° East 458 527 37,000  Level Salt Lake Center
09:26AM 39.0411 -114.7128 81° East 460 529 37,000  Level Salt Lake Center
09:27AM 39.0622 -114.5489 81° East 462 532 37,000  Level Salt Lake Center
09:28AM 39.0828 -114.3875 81° East 459 528 37,000  Level Salt Lake Center
09:29AM 39.1033 -114.2250 81° East 461 531 37,000  Level Salt Lake Center
09:30AM 39.1236 -114.0631 81° East 458 527 37,000  Level Salt Lake Center
09:31AM 39.1425 -113.8997 81° East 460 529 37,000  Level Salt Lake Center
09:32AM 39.1633 -113.7364 81° East 461 531 37,000  Level Salt Lake Center
09:33AM 39.1853 -113.5436 82° East 454 522 37,000  Level Salt Lake Center
09:34AM 39.2053 -113.3814 81° East 457 526 37,000  Level Salt Lake Center
09:35AM 39.2236 -113.2200 82° East 456 525 37,000  Level Salt Lake Center
09:36AM 39.2406 -113.0586 82° East 455 524 37,000  Level Salt Lake Center
09:37AM 39.2594 -112.8969 81° East 455 524 37,000  Level Salt Lake Center
09:38AM 39.2769 -112.7361 82° East 453 521 37,000  Level Salt Lake Center
09:39AM 39.2958 -112.5764 81° East 452 520 37,000  Level Salt Lake Center
09:40AM 39.3197 -112.4186 79° East 451 519 37,000  Level Salt Lake Center
09:41AM 39.3492 -112.2622 76° East 452 520 37,000  Level Salt Lake Center
09:42AM 39.3789 -112.1069 76° East 449 517 37,000  Level Salt Lake Center
09:43AM 39.4075 -111.9497 77° East 452 520 37,000  Level Salt Lake Center
09:44AM 39.4353 -111.7919 77° East 452 520 37,000  Level Salt Lake Center
09:45AM 39.4703 -111.6033 76° East 452 520 37,000  Level Salt Lake Center
09:46AM 39.4975 -111.4469 77° East 449 517 37,000  Level Salt Lake Center
09:47AM 39.5258 -111.2903 77° East 448 516 37,000  Level Salt Lake Center
09:48AM 39.5531 -111.1358 77° East 448 516 37,000  Level Salt Lake Center
09:50AM 39.5800 -110.9836 77° East 453 521 37,000  Level Salt Lake Center
09:51AM 39.6100 -110.8044 78° East 455 524 37,000  Level Salt Lake Center
09:52AM 39.6375 -110.6531 77° East 452 520 37,000  Level Salt Lake Center
09:53AM 39.6661 -110.4744 78° East 452 520 37,000  Level Salt Lake Center
09:54AM 39.6925 -110.3219 77° East 454 522 37,000  Level Salt Lake Center
09:55AM 39.7183 -110.1681 78° East 456 525 37,000  Level Salt Lake Center
09:56AM 39.7489 -109.9856 78° East 461 531 37,000  Level Salt Lake Center
09:57AM 39.7736 -109.8306 78° East 460 529 37,000  Level Salt Lake Center
09:58AM 39.7992 -109.6736 78° East 461 531 37,000  Level Salt Lake Center
09:58AM 39.8114 -109.5956 78° East 458 527 37,000  Level Denver Center
09:59AM 39.8358 -109.4406 78° East 456 525 37,000  Level Denver Center
10:00AM 39.8528 -109.3394 78° East 454 522 37,000  Level Salt Lake Center
10:01AM 39.8806 -109.1600 79° East 452 520 37,000  Level Salt Lake Center
10:02AM 39.9056 -109.0053 78° East 454 522 37,000  Level Salt Lake Center
10:03AM 39.9294 -108.8489 79° East 455 524 37,000  Level Salt Lake Center
10:03AM 39.9375 -108.7956 79° East 456 525 37,000  Level Denver Center
10:04AM 39.9658 -108.6125 79° East 457 526 37,000  Level Denver Center
10:05AM 39.9883 -108.4569 79° East 454 522 37,000  Level Denver Center
10:06AM 40.0125 -108.3000 79° East 457 526 37,000  Level Denver Center
10:07AM 40.0394 -108.1181 79° East 455 524 37,000  Level Denver Center
10:08AM 40.0658 -107.9631 77° East 457 526 37,000  Level Denver Center
10:09AM 40.1486 -107.8214 53° Northeast 442 509 37,000  Level Denver Center
10:10AM 40.2233 -107.7042 50° Northeast 438 504 37,000  Level Denver Center
10:11AM 40.2972 -107.5881 50° Northeast 435 501 37,000  Level Denver Center
10:12AM 40.3847 -107.4519 50° Northeast 436 502 37,000  Level Denver Center
10:13AM 40.4594 -107.3342 50° Northeast 437 503 37,000  Level Denver Center
10:14AM 40.4883 -107.1700 77° East 471 542 37,000  Level Denver Center
10:15AM 40.4783 -106.9906 94° East 470 541 37,000  Level Denver Center
10:16AM 40.4644 -106.8278 96° East 467 537 37,000  Level Denver Center
10:17AM 40.4528 -106.6586 95° East 465 535 37,000 -1,800 Level Denver Center
10:19AM 40.4411 -106.4842 95° East 455 524 33,400 -4,380 Descending Denver Center
10:20AM 40.4236 -106.2806 96° East 503 579 28,000 -4,020 Descending Denver Center
10:21AM 40.4108 -106.0983 95° East 497 572 25,200 -2,880 Descending Denver Center
10:22AM 40.3983 -105.9219 95° East 482 555 22,200 -2,760 Descending Denver Center
10:23AM 40.3825 -105.7531 97° East 468 539 19,500 -2,160 Descending Denver Center
10:24AM 40.3692 -105.5869 96° East 454 522 17,800 -1,260 Descending Denver Center
10:25AM 40.3569 -105.4406 96° East 383 441 17,000 -900 Descending Denver Center
10:26AM 40.3394 -105.3103 100° East 340 391 16,000 -780 Descending Denver Center
10:27AM 40.3236 -105.1978 100° East 316 364 15,500 -540 Descending Denver Center
10:28AM 40.3083 -105.0911 101° East 299 344 14,900 -900 Descending Denver Center
10:29AM 40.2889 -104.9739 102° East 305 351 13,700 -1,140 Descending Denver Center
10:30AM 40.2492 -104.8769 118° Southeast 301 346 12,600 -1,200 Descending Denver Center
10:31AM 40.2008 -104.8033 131° Southeast 275 316 11,300 -1,020 Descending Denver Center
10:32AM 40.1336 -104.7511 149° Southeast 259 298 10,400 -1,200 Descending Denver Center
10:33AM 40.0731 -104.7072 151° Southeast 198 228 8,600 -1,800 Descending Denver Center